createdAt,value
2018-12-08T00:02:42.878Z,1.00
2018-12-08T00:07:47.423Z,1.10
2018-12-08T00:12:51.947Z,0.93
2018-12-08T00:17:56.442Z,1.20
2018-12-08T00:23:00.962Z,1.00
2018-12-08T00:28:05.482Z,1.07
2018-12-08T00:33:09.984Z,0.97
2018-12-08T00:38:14.513Z,0.97
2018-12-08T00:43:19.023Z,1.80
2018-12-08T00:48:23.532Z,1.17
2018-12-08T00:53:28.102Z,1.23
2018-12-08T00:58:32.598Z,0.93
2018-12-08T01:03:37.097Z,1.33
2018-12-08T01:08:41.610Z,1.20
2018-12-08T01:13:46.161Z,1.47
2018-12-08T01:18:50.682Z,1.40
2018-12-08T01:23:55.198Z,1.53
2018-12-08T01:28:59.690Z,2.23
2018-12-08T01:34:04.290Z,2.00
2018-12-08T01:39:08.990Z,2.10
2018-12-08T01:44:13.502Z,1.93
2018-12-08T01:49:18.021Z,2.30
2018-12-08T01:54:23.958Z,2.40
2018-12-08T01:59:28.505Z,2.47
2018-12-08T02:04:32.991Z,2.63
2018-12-08T02:09:37.575Z,3.00
2018-12-08T02:14:42.076Z,2.87
2018-12-08T02:19:46.580Z,2.50
2018-12-08T02:24:51.096Z,3.33
2018-12-08T02:29:55.609Z,3.07
2018-12-08T02:35:00.094Z,3.17
2018-12-08T02:40:04.688Z,2.33
2018-12-08T02:45:09.174Z,2.67
2018-12-08T02:50:13.693Z,1.97
2018-12-08T02:55:18.195Z,2.23
2018-12-08T03:00:22.749Z,3.37
2018-12-08T03:05:27.253Z,2.70
2018-12-08T03:10:31.811Z,2.33
2018-12-08T03:15:36.354Z,3.60
2018-12-08T03:20:40.845Z,2.57
2018-12-08T03:25:45.371Z,2.83
2018-12-08T03:30:49.877Z,2.53
2018-12-08T03:35:54.399Z,2.40
2018-12-08T03:40:58.897Z,2.83
2018-12-08T03:46:03.421Z,2.67
2018-12-08T03:51:07.907Z,2.33
2018-12-08T03:56:12.419Z,2.43
2018-12-08T04:01:16.921Z,2.67
2018-12-08T04:06:21.443Z,2.57
2018-12-08T04:11:26.021Z,2.93
2018-12-08T04:16:30.541Z,2.27
2018-12-08T04:21:35.024Z,2.53
2018-12-08T04:26:39.514Z,2.33
2018-12-08T04:31:44.021Z,3.00
2018-12-08T04:36:48.536Z,2.97
2018-12-08T04:41:53.025Z,2.83
2018-12-08T04:46:57.529Z,2.60
2018-12-08T04:52:02.056Z,2.33
2018-12-08T04:57:06.546Z,2.63
2018-12-08T05:02:11.053Z,2.80
2018-12-08T05:07:15.534Z,2.10
2018-12-08T05:12:20.125Z,2.90
2018-12-08T05:17:24.649Z,2.57
2018-12-08T05:22:29.138Z,2.17
2018-12-08T05:27:33.654Z,2.37
2018-12-08T05:32:38.150Z,2.50
2018-12-08T05:37:42.680Z,2.53
2018-12-08T05:42:47.195Z,2.23
2018-12-08T05:47:51.718Z,2.27
2018-12-08T05:52:56.255Z,2.33
2018-12-08T05:58:00.873Z,2.73
2018-12-08T06:03:05.398Z,2.47
2018-12-08T06:08:09.889Z,2.43
2018-12-08T06:13:14.376Z,2.63
2018-12-08T06:18:18.934Z,2.60
2018-12-08T06:23:23.462Z,2.67
2018-12-08T06:28:32.787Z,2.37
2018-12-08T06:33:37.327Z,2.40
2018-12-08T06:38:41.878Z,2.63
2018-12-08T06:43:46.386Z,3.10
2018-12-08T06:48:50.898Z,2.63
2018-12-08T06:53:55.393Z,2.60
2018-12-08T06:58:59.898Z,2.27
2018-12-08T07:04:04.426Z,2.20
2018-12-08T07:09:09.160Z,2.37
2018-12-08T07:14:13.729Z,2.50
2018-12-08T07:19:18.254Z,2.17
2018-12-08T07:24:22.773Z,2.20
2018-12-08T07:29:27.281Z,2.70
2018-12-08T07:34:31.780Z,2.60
2018-12-08T07:39:36.305Z,2.40
2018-12-08T07:44:40.810Z,1.97
2018-12-08T07:49:45.470Z,2.00
2018-12-08T07:54:49.976Z,2.10
2018-12-08T07:59:54.486Z,1.77
2018-12-08T08:04:58.989Z,2.17
2018-12-08T08:10:03.670Z,2.10
2018-12-08T08:15:10.521Z,2.40
2018-12-08T08:20:18.620Z,1.57
2018-12-08T08:25:23.179Z,2.00
2018-12-08T08:30:27.702Z,1.70
2018-12-08T08:35:32.291Z,1.60
2018-12-08T08:40:36.831Z,1.67
2018-12-08T08:45:41.338Z,1.80
2018-12-08T08:50:45.841Z,1.57
2018-12-08T08:55:50.352Z,1.30
2018-12-08T09:00:57.682Z,1.50
2018-12-08T09:06:02.206Z,2.03
2018-12-08T09:11:06.734Z,1.50
2018-12-08T09:16:11.294Z,1.70
2018-12-08T09:21:15.793Z,1.30
2018-12-08T09:26:20.353Z,1.60
2018-12-08T09:31:24.858Z,1.63
2018-12-08T09:36:29.774Z,1.67
2018-12-08T09:41:34.369Z,1.30
2018-12-08T09:46:38.906Z,1.93
2018-12-08T09:51:43.530Z,1.17
2018-12-08T09:56:48.082Z,1.40
2018-12-08T10:01:52.689Z,1.33
2018-12-08T10:06:57.263Z,1.60
2018-12-08T10:12:01.801Z,1.70
2018-12-08T10:17:08.505Z,2.33
2018-12-08T10:22:13.482Z,1.40
2018-12-08T10:27:18.053Z,1.30
2018-12-08T10:32:22.613Z,1.40
2018-12-08T10:37:27.130Z,1.00
2018-12-08T10:42:31.626Z,1.23
2018-12-08T10:47:36.308Z,1.90
2018-12-08T10:52:40.822Z,1.23
2018-12-08T10:57:45.332Z,1.27
2018-12-08T11:02:54.390Z,1.20
2018-12-08T11:07:58.879Z,1.27
2018-12-08T11:13:03.420Z,1.13
2018-12-08T11:18:07.945Z,1.30
2018-12-08T11:23:12.447Z,1.43
2018-12-08T11:28:16.954Z,1.20
2018-12-08T11:33:21.446Z,1.17
2018-12-08T11:38:25.994Z,1.40
2018-12-08T11:43:30.494Z,1.67
2018-12-08T11:48:35.021Z,1.40
2018-12-08T11:53:39.573Z,1.27
2018-12-08T11:58:44.095Z,1.30
2018-12-08T12:03:48.596Z,1.20
2018-12-08T12:08:53.202Z,1.10
2018-12-08T12:13:57.696Z,1.40
2018-12-08T12:19:02.219Z,1.23
2018-12-08T12:24:06.733Z,1.20
2018-12-08T12:29:11.281Z,1.00
2018-12-08T12:34:15.812Z,1.10
2018-12-08T12:39:20.386Z,1.50
2018-12-08T12:44:24.905Z,1.00
2018-12-08T12:49:29.471Z,1.20
2018-12-08T12:54:34.006Z,1.60
2018-12-08T12:59:38.556Z,1.00
2018-12-08T13:04:43.099Z,1.00
2018-12-08T13:09:47.625Z,1.07
2018-12-08T13:14:52.175Z,1.47
2018-12-08T13:19:56.693Z,1.00
2018-12-08T13:25:20.002Z,1.20
2018-12-08T13:30:24.522Z,1.37
2018-12-08T13:35:55.834Z,1.10
2018-12-08T13:41:00.337Z,1.20
2018-12-08T13:46:04.843Z,1.03
2018-12-08T13:51:09.374Z,1.17
2018-12-08T13:56:13.879Z,1.20
2018-12-08T14:01:18.393Z,0.90
2018-12-08T14:06:22.895Z,1.30
2018-12-08T14:11:27.413Z,1.27
2018-12-08T14:16:31.981Z,1.50
2018-12-08T14:21:36.470Z,1.53
2018-12-08T14:26:41.115Z,1.30
2018-12-08T14:31:45.642Z,1.30
2018-12-08T14:36:50.263Z,1.10
2018-12-08T14:41:54.767Z,0.90
2018-12-08T14:46:59.288Z,1.43
2018-12-08T14:52:03.801Z,1.13
2018-12-08T14:57:08.309Z,1.20
2018-12-08T15:02:12.828Z,1.37
2018-12-08T15:07:17.346Z,1.60
2018-12-08T15:12:21.882Z,1.37
2018-12-08T15:17:26.418Z,1.43
2018-12-08T15:22:30.949Z,1.53
2018-12-08T15:27:35.462Z,1.20
2018-12-08T15:32:39.985Z,1.13
2018-12-08T15:37:44.562Z,1.10
2018-12-08T15:42:49.114Z,1.43
2018-12-08T15:47:53.629Z,1.20
2018-12-08T15:52:58.151Z,1.00
2018-12-08T15:58:02.707Z,1.10
2018-12-08T16:03:07.244Z,1.27
2018-12-08T16:08:11.760Z,1.10
2018-12-08T16:13:16.271Z,1.00
2018-12-08T16:18:20.850Z,0.97
2018-12-08T16:23:25.369Z,0.90
2018-12-08T16:28:29.950Z,1.00
2018-12-08T16:33:34.479Z,1.17
2018-12-08T16:38:39.021Z,0.70
2018-12-08T16:43:43.637Z,1.30
2018-12-08T16:48:48.557Z,0.93
2018-12-08T16:53:53.127Z,1.10
2018-12-08T16:58:57.715Z,1.30
2018-12-08T17:04:02.217Z,1.00
2018-12-08T17:09:07.121Z,1.13
2018-12-08T17:14:11.642Z,1.00
2018-12-08T17:19:16.224Z,1.70
2018-12-08T17:24:20.752Z,1.50
2018-12-08T17:29:25.336Z,1.17
2018-12-08T17:34:29.894Z,1.20
2018-12-08T17:39:34.473Z,1.00
2018-12-08T17:44:39.002Z,1.23
2018-12-08T17:49:43.542Z,1.33
2018-12-08T17:54:50.274Z,1.30
2018-12-08T17:59:54.808Z,1.40
2018-12-08T18:04:59.386Z,1.40
2018-12-08T18:10:04.001Z,1.60
2018-12-08T18:15:08.601Z,1.20
2018-12-08T18:20:13.166Z,1.30
2018-12-08T18:25:17.726Z,1.30
2018-12-08T18:30:22.269Z,1.60
2018-12-08T18:35:26.829Z,2.50
2018-12-08T18:40:32.125Z,1.67
2018-12-08T18:45:36.418Z,1.63
2018-12-08T18:50:40.980Z,1.50
2018-12-08T18:55:45.590Z,1.20
2018-12-08T19:00:50.141Z,1.40
2018-12-08T19:05:54.790Z,1.50
2018-12-08T19:10:59.677Z,1.67
2018-12-08T19:16:04.258Z,1.40
2018-12-08T19:21:09.124Z,1.20
2018-12-08T19:26:13.744Z,1.33
2018-12-08T19:31:18.302Z,1.40
2018-12-08T19:36:22.854Z,1.63
2018-12-08T19:41:27.459Z,1.60
2018-12-08T19:46:32.041Z,1.50
2018-12-08T19:51:36.710Z,1.47
2018-12-08T19:56:41.322Z,1.50
2018-12-08T20:01:46.112Z,1.97
2018-12-08T20:06:50.671Z,1.70
2018-12-08T20:11:55.205Z,1.80
2018-12-08T20:16:59.881Z,2.00
2018-12-08T20:22:04.400Z,2.03
2018-12-08T20:27:08.905Z,1.40
2018-12-08T20:32:13.441Z,1.57
2018-12-08T20:37:18.008Z,1.80
2018-12-08T20:42:22.577Z,1.77
2018-12-08T20:47:27.197Z,1.90
2018-12-08T20:52:31.738Z,1.53
2018-12-08T20:57:36.262Z,1.70
2018-12-08T21:02:40.834Z,1.50
2018-12-08T21:07:45.377Z,1.57
2018-12-08T21:12:49.905Z,1.87
2018-12-08T21:17:54.673Z,1.80
2018-12-08T21:22:59.197Z,2.07
2018-12-08T21:28:03.723Z,2.07
2018-12-08T21:33:08.360Z,2.00
2018-12-08T21:38:12.888Z,1.60
2018-12-08T21:43:17.418Z,1.90
2018-12-08T21:48:21.962Z,2.07
2018-12-08T21:53:26.473Z,1.57
2018-12-08T21:58:30.994Z,1.50
2018-12-08T22:03:35.546Z,1.97
2018-12-08T22:08:40.064Z,1.40
2018-12-08T22:13:45.057Z,1.70
2018-12-08T22:18:49.609Z,1.73
2018-12-08T22:23:54.182Z,2.00
2018-12-08T22:28:58.750Z,1.80
2018-12-08T22:34:03.297Z,2.00
2018-12-08T22:39:08.268Z,1.77
2018-12-08T22:44:13.169Z,1.60
2018-12-08T22:49:17.722Z,1.67
2018-12-08T22:54:22.250Z,1.60
2018-12-08T22:59:26.769Z,1.83
2018-12-08T23:04:31.278Z,1.50
2018-12-08T23:09:35.793Z,1.77
2018-12-08T23:14:40.366Z,1.70
2018-12-08T23:19:44.847Z,1.90
2018-12-08T23:24:49.350Z,1.30
2018-12-08T23:29:53.850Z,1.63
2018-12-08T23:34:58.419Z,1.73
2018-12-08T23:40:02.933Z,1.60
2018-12-08T23:45:07.446Z,2.00
2018-12-08T23:50:11.937Z,2.27
2018-12-08T23:55:16.437Z,1.87
